createdAt,value
2022-10-22T00:00:13.485Z,0.00
2022-10-22T00:01:15.986Z,0.00
2022-10-22T00:02:13.441Z,0.00
2022-10-22T00:03:13.436Z,0.00
2022-10-22T00:04:13.426Z,0.00
2022-10-22T00:05:13.482Z,0.00
2022-10-22T00:06:13.394Z,0.00
2022-10-22T00:07:14.378Z,0.00
2022-10-22T00:08:14.376Z,0.00
2022-10-22T00:09:13.470Z,0.00
2022-10-22T00:10:13.364Z,0.00
2022-10-22T00:11:13.349Z,0.00
2022-10-22T00:12:13.355Z,0.00
2022-10-22T00:13:13.349Z,0.00
2022-10-22T00:14:13.323Z,0.00
2022-10-22T00:15:13.326Z,0.00
2022-10-22T00:16:13.323Z,0.00
2022-10-22T00:17:13.296Z,0.00
2022-10-22T00:18:13.287Z,0.00
2022-10-22T00:19:13.273Z,0.00
2022-10-22T00:20:13.261Z,0.00
2022-10-22T00:21:13.271Z,0.00
2022-10-22T00:22:13.241Z,0.00
2022-10-22T00:23:13.249Z,0.00
2022-10-22T00:24:13.217Z,0.00
2022-10-22T00:25:13.219Z,0.00
2022-10-22T00:26:13.210Z,0.00
2022-10-22T00:27:13.191Z,0.00
2022-10-22T00:28:13.205Z,0.00
2022-10-22T00:29:13.169Z,0.00
2022-10-22T00:30:13.158Z,0.00
2022-10-22T00:31:13.160Z,0.00
2022-10-22T00:32:13.138Z,0.00
2022-10-22T00:33:13.136Z,0.00
2022-10-22T00:34:13.135Z,0.00
2022-10-22T00:35:13.122Z,0.00
2022-10-22T00:36:13.168Z,0.00
2022-10-22T00:37:13.086Z,0.00
2022-10-22T00:38:13.093Z,0.00
2022-10-22T00:39:13.076Z,0.00
2022-10-22T00:40:13.064Z,0.00
2022-10-22T00:41:13.078Z,0.00
2022-10-22T00:42:13.042Z,0.00
2022-10-22T00:43:13.038Z,0.00
2022-10-22T00:44:13.025Z,0.00
2022-10-22T00:45:13.014Z,0.00
2022-10-22T00:46:12.996Z,0.00
2022-10-22T00:47:13.018Z,0.00
2022-10-22T00:48:12.979Z,0.00
2022-10-22T00:49:12.985Z,0.00
2022-10-22T00:50:12.999Z,0.00
2022-10-22T00:51:12.969Z,0.00
2022-10-22T00:52:12.957Z,0.00
2022-10-22T00:53:12.936Z,0.00
2022-10-22T00:54:12.930Z,0.00
2022-10-22T00:55:12.929Z,0.00
2022-10-22T00:56:12.916Z,0.00
2022-10-22T00:57:12.895Z,0.00
2022-10-22T00:58:12.883Z,0.00
2022-10-22T00:59:12.878Z,0.00
2022-10-22T01:00:12.865Z,0.00
2022-10-22T01:01:12.905Z,0.00
2022-10-22T01:02:12.840Z,0.00
2022-10-22T01:03:12.829Z,0.00
2022-10-22T01:04:12.839Z,0.00
2022-10-22T01:05:12.854Z,0.00
2022-10-22T01:06:12.831Z,0.00
2022-10-22T01:07:12.797Z,0.00
2022-10-22T01:08:12.788Z,0.00
2022-10-22T01:09:12.774Z,0.00
2022-10-22T01:10:12.770Z,0.00
2022-10-22T01:11:12.755Z,0.00
2022-10-22T01:12:12.760Z,0.00
2022-10-22T01:13:12.758Z,0.00
2022-10-22T01:14:12.748Z,0.00
2022-10-22T01:15:12.716Z,0.00
2022-10-22T01:16:12.724Z,0.00
2022-10-22T01:17:12.732Z,0.00
2022-10-22T01:18:12.685Z,0.00
2022-10-22T01:19:12.701Z,0.00
2022-10-22T01:20:12.668Z,0.00
2022-10-22T01:21:12.666Z,0.00
2022-10-22T01:22:12.653Z,0.00
2022-10-22T01:23:12.640Z,0.00
2022-10-22T01:24:12.637Z,0.00
2022-10-22T01:25:12.653Z,0.00
2022-10-22T01:26:12.649Z,0.00
2022-10-22T01:27:12.612Z,0.00
2022-10-22T01:28:12.605Z,0.00
2022-10-22T01:29:12.592Z,0.00
2022-10-22T01:30:12.592Z,0.00
2022-10-22T01:31:12.576Z,0.00
2022-10-22T01:32:12.556Z,0.00
2022-10-22T01:33:12.547Z,0.00
2022-10-22T01:34:12.528Z,0.00
2022-10-22T01:35:12.571Z,0.00
2022-10-22T01:36:12.514Z,0.00
2022-10-22T01:37:12.504Z,0.00
2022-10-22T01:38:12.501Z,0.00
2022-10-22T01:39:12.473Z,0.00
2022-10-22T01:40:12.511Z,0.00
2022-10-22T01:41:12.473Z,0.00
2022-10-22T01:42:12.443Z,0.00
2022-10-22T01:43:12.445Z,0.00
2022-10-22T01:44:12.432Z,0.00
2022-10-22T01:45:12.429Z,0.00
2022-10-22T01:46:12.416Z,0.00
2022-10-22T01:47:12.406Z,0.00
2022-10-22T01:48:12.401Z,0.00
2022-10-22T01:49:12.381Z,0.00
2022-10-22T01:50:12.394Z,0.00
2022-10-22T01:51:12.386Z,0.00
2022-10-22T01:52:12.348Z,0.00
2022-10-22T01:53:12.350Z,0.00
2022-10-22T01:54:12.330Z,0.00
2022-10-22T01:55:12.312Z,0.00
2022-10-22T01:56:12.327Z,0.00
2022-10-22T01:57:12.300Z,0.00
2022-10-22T01:58:12.301Z,0.00
2022-10-22T01:59:12.286Z,0.00
2022-10-22T02:00:12.272Z,0.00
2022-10-22T02:01:12.332Z,0.00
2022-10-22T02:02:12.255Z,0.00
2022-10-22T02:03:13.244Z,0.00
2022-10-22T02:04:12.236Z,0.00
2022-10-22T02:05:12.246Z,0.00
2022-10-22T02:06:12.209Z,0.00
2022-10-22T02:07:12.197Z,0.00
2022-10-22T02:08:12.185Z,0.00
2022-10-22T02:09:12.223Z,0.00
2022-10-22T02:10:12.190Z,0.00
2022-10-22T02:11:12.153Z,0.00
2022-10-22T02:12:12.157Z,0.00
2022-10-22T02:13:12.158Z,0.00
2022-10-22T02:14:12.128Z,0.00
2022-10-22T02:15:12.118Z,0.00
2022-10-22T02:16:12.123Z,0.00
2022-10-22T02:17:12.104Z,0.00
2022-10-22T02:18:12.101Z,0.00
2022-10-22T02:19:12.079Z,0.00
2022-10-22T02:20:12.076Z,0.00
2022-10-22T02:21:12.083Z,0.00
2022-10-22T02:22:12.047Z,0.00
2022-10-22T02:23:12.039Z,0.00
2022-10-22T02:24:12.027Z,0.00
2022-10-22T02:25:12.019Z,0.00
2022-10-22T02:26:12.046Z,0.00
2022-10-22T02:27:12.010Z,0.00
2022-10-22T02:28:11.998Z,0.00
2022-10-22T02:29:11.975Z,0.00
2022-10-22T02:30:12.030Z,0.00
2022-10-22T02:31:11.983Z,0.00
2022-10-22T02:32:11.960Z,0.00
2022-10-22T02:33:11.957Z,0.00
2022-10-22T02:34:11.955Z,0.00
2022-10-22T02:35:11.923Z,0.00
2022-10-22T02:36:11.939Z,0.00
2022-10-22T02:37:11.908Z,0.00
2022-10-22T02:38:12.027Z,0.00
2022-10-22T02:39:11.906Z,0.00
2022-10-22T02:40:11.862Z,0.00
2022-10-22T02:41:11.851Z,0.00
2022-10-22T02:42:11.870Z,0.00
2022-10-22T02:43:11.856Z,0.00
2022-10-22T02:44:11.832Z,0.00
2022-10-22T02:45:11.888Z,0.00
2022-10-22T02:46:11.822Z,0.00
2022-10-22T02:47:11.805Z,0.00
2022-10-22T02:48:11.872Z,0.00
2022-10-22T02:49:11.791Z,0.00
2022-10-22T02:50:11.797Z,0.00
2022-10-22T02:51:43.665Z,0.00
2022-10-22T02:52:11.771Z,0.00
2022-10-22T02:53:11.754Z,0.00
2022-10-22T02:54:11.738Z,0.00
2022-10-22T02:55:11.718Z,0.00
2022-10-22T02:56:11.716Z,0.00
2022-10-22T02:57:11.761Z,0.00
2022-10-22T02:58:11.717Z,0.00
2022-10-22T02:59:11.690Z,0.00
2022-10-22T03:00:11.695Z,0.00
2022-10-22T03:01:15.215Z,0.00
2022-10-22T03:02:11.650Z,0.00
2022-10-22T03:03:11.643Z,0.00
2022-10-22T03:04:11.660Z,0.00
2022-10-22T03:05:11.620Z,0.00
2022-10-22T03:06:11.682Z,0.00
2022-10-22T03:07:11.605Z,0.00
2022-10-22T03:08:11.589Z,0.00
2022-10-22T03:09:12.622Z,0.00
2022-10-22T03:10:11.568Z,0.00
2022-10-22T03:11:11.563Z,0.00
2022-10-22T03:12:11.554Z,0.00
2022-10-22T03:13:11.548Z,0.00
2022-10-22T03:14:11.547Z,0.00
2022-10-22T03:15:11.540Z,0.00
2022-10-22T03:16:11.513Z,0.00
2022-10-22T03:17:11.504Z,0.00
2022-10-22T03:18:11.504Z,0.00
2022-10-22T03:19:11.546Z,0.00
2022-10-22T03:20:11.485Z,0.00
2022-10-22T03:21:11.491Z,0.00
2022-10-22T03:22:11.460Z,0.00
2022-10-22T03:23:11.451Z,0.00
2022-10-22T03:24:11.463Z,0.00
2022-10-22T03:25:11.437Z,0.00
2022-10-22T03:26:11.433Z,0.00
2022-10-22T03:27:11.416Z,0.00
2022-10-22T03:28:11.405Z,0.00
2022-10-22T03:29:11.394Z,0.00
2022-10-22T03:30:11.378Z,0.00
2022-10-22T03:31:11.366Z,0.00
2022-10-22T03:32:11.353Z,0.00
2022-10-22T03:33:11.369Z,0.00
2022-10-22T03:34:11.329Z,0.00
2022-10-22T03:35:11.338Z,0.00
2022-10-22T03:36:11.316Z,0.00
2022-10-22T03:37:11.324Z,0.00
2022-10-22T03:38:11.275Z,0.00
2022-10-22T03:39:11.281Z,0.00
2022-10-22T03:40:11.282Z,0.00
2022-10-22T03:41:11.242Z,0.00
2022-10-22T03:42:12.263Z,0.00
2022-10-22T03:43:11.231Z,0.00
2022-10-22T03:44:11.229Z,0.00
2022-10-22T03:45:11.224Z,0.00
2022-10-22T03:46:12.206Z,0.00
2022-10-22T03:47:11.216Z,0.00
2022-10-22T03:48:11.221Z,0.00
2022-10-22T03:49:11.173Z,0.00
2022-10-22T03:50:11.164Z,0.00
2022-10-22T03:51:11.154Z,0.00
2022-10-22T03:52:11.153Z,0.00
2022-10-22T03:53:11.130Z,0.00
2022-10-22T03:54:11.143Z,0.00
2022-10-22T03:55:11.132Z,0.00
2022-10-22T03:56:11.111Z,0.00
2022-10-22T03:57:11.120Z,0.00
2022-10-22T03:58:11.114Z,0.00
2022-10-22T03:59:11.071Z,0.00
2022-10-22T04:00:11.058Z,0.00
2022-10-22T04:01:11.120Z,0.00
2022-10-22T04:02:11.045Z,0.00
2022-10-22T04:03:11.051Z,0.00
2022-10-22T04:04:11.016Z,0.00
2022-10-22T04:05:11.086Z,0.00
2022-10-22T04:06:11.011Z,0.00
2022-10-22T04:07:10.999Z,0.00
2022-10-22T04:08:10.997Z,0.00
2022-10-22T04:09:11.017Z,0.00
2022-10-22T04:10:10.967Z,0.00
2022-10-22T04:11:10.944Z,0.00
2022-10-22T04:12:10.953Z,0.00
2022-10-22T04:13:10.941Z,0.00
2022-10-22T04:14:10.928Z,0.00
2022-10-22T04:15:10.914Z,0.00
2022-10-22T04:16:10.923Z,0.00
2022-10-22T04:17:10.899Z,0.00
2022-10-22T04:18:10.890Z,0.00
2022-10-22T04:19:10.870Z,0.00
2022-10-22T04:20:10.861Z,0.00
2022-10-22T04:21:10.859Z,0.00
2022-10-22T04:22:10.868Z,0.00
2022-10-22T04:23:10.829Z,0.00
2022-10-22T04:24:10.820Z,0.00
2022-10-22T04:25:10.818Z,0.00
2022-10-22T04:26:10.807Z,0.00
2022-10-22T04:27:10.816Z,0.00
2022-10-22T04:28:10.783Z,0.00
2022-10-22T04:29:13.575Z,0.00
2022-10-22T04:30:11.762Z,0.00
2022-10-22T04:31:10.759Z,0.00
2022-10-22T04:32:10.745Z,0.00
2022-10-22T04:33:10.746Z,0.00
2022-10-22T04:34:10.733Z,0.00
2022-10-22T04:35:10.713Z,0.00
2022-10-22T04:36:10.702Z,0.00
2022-10-22T04:37:10.718Z,0.00
2022-10-22T04:38:10.680Z,0.00
2022-10-22T04:39:10.671Z,0.00
2022-10-22T04:40:10.666Z,0.00
2022-10-22T04:41:10.670Z,0.00
2022-10-22T04:42:10.670Z,0.00
2022-10-22T04:43:10.635Z,0.00
2022-10-22T04:44:13.635Z,0.00
2022-10-22T04:45:11.623Z,0.00
2022-10-22T04:46:10.609Z,0.00
2022-10-22T04:47:10.602Z,0.00
2022-10-22T04:48:10.600Z,0.00
2022-10-22T04:49:10.577Z,0.00
2022-10-22T04:50:10.580Z,0.00
2022-10-22T04:51:10.614Z,0.00
2022-10-22T04:52:10.542Z,0.00
2022-10-22T04:53:10.527Z,0.00
2022-10-22T04:54:10.514Z,0.00
2022-10-22T04:55:10.511Z,0.00
2022-10-22T04:56:10.520Z,0.00
2022-10-22T04:57:10.507Z,0.00
2022-10-22T04:58:10.479Z,0.00
2022-10-22T04:59:10.476Z,0.00
2022-10-22T05:00:10.467Z,0.00
2022-10-22T05:01:10.562Z,0.00
2022-10-22T05:02:10.462Z,0.00
2022-10-22T05:03:10.431Z,0.00
2022-10-22T05:04:10.434Z,0.00
2022-10-22T05:05:10.410Z,0.00
2022-10-22T05:06:10.435Z,0.00
2022-10-22T05:07:10.406Z,0.00
2022-10-22T05:08:10.410Z,0.00
2022-10-22T05:09:10.493Z,0.00
2022-10-22T05:10:10.378Z,0.00
2022-10-22T05:11:10.366Z,0.00
2022-10-22T05:12:10.383Z,0.00
2022-10-22T05:13:10.349Z,0.00
2022-10-22T05:14:10.322Z,0.00
2022-10-22T05:15:10.308Z,0.00
2022-10-22T05:16:10.309Z,0.00
2022-10-22T05:17:10.311Z,0.00
2022-10-22T05:18:10.278Z,0.00
2022-10-22T05:19:10.265Z,0.00
2022-10-22T05:20:10.283Z,0.00
2022-10-22T05:21:10.248Z,0.00
2022-10-22T05:22:11.224Z,0.00
2022-10-22T05:23:11.251Z,0.00
2022-10-22T05:24:10.220Z,0.00
2022-10-22T05:25:10.211Z,0.00
2022-10-22T05:26:10.197Z,0.00
2022-10-22T05:27:10.225Z,0.00
2022-10-22T05:28:10.197Z,0.00
2022-10-22T05:29:10.165Z,0.00
2022-10-22T05:30:10.163Z,0.00
2022-10-22T05:31:10.159Z,0.00
2022-10-22T05:32:10.133Z,0.00
2022-10-22T05:33:10.144Z,0.00
2022-10-22T05:34:10.112Z,4.00
2022-10-22T05:35:10.109Z,4.00
2022-10-22T05:36:10.112Z,0.00
2022-10-22T05:37:10.089Z,4.00
2022-10-22T05:38:10.073Z,4.00
2022-10-22T05:39:10.075Z,4.00
2022-10-22T05:40:19.505Z,4.00
2022-10-22T05:41:12.079Z,8.00
2022-10-22T05:42:10.032Z,4.00
2022-10-22T05:43:10.033Z,8.00
2022-10-22T05:44:10.012Z,8.00
2022-10-22T05:45:10.016Z,12.00
2022-10-22T05:46:10.076Z,12.00
2022-10-22T05:47:09.992Z,12.00
2022-10-22T05:48:09.962Z,16.00
2022-10-22T05:49:09.957Z,16.00
2022-10-22T05:50:09.966Z,20.00
2022-10-22T05:51:09.969Z,24.00
2022-10-22T05:52:09.929Z,28.00
2022-10-22T05:53:09.917Z,32.00
2022-10-22T05:54:09.940Z,36.00
2022-10-22T05:55:09.898Z,40.00
2022-10-22T05:56:09.892Z,40.00
2022-10-22T05:57:09.904Z,44.00
2022-10-22T05:58:09.863Z,52.00
2022-10-22T05:59:09.855Z,60.00
2022-10-22T06:00:12.832Z,64.00
2022-10-22T06:01:09.850Z,72.00
2022-10-22T06:02:09.911Z,80.00
2022-10-22T06:03:09.819Z,88.00
2022-10-22T06:04:09.806Z,100.00
2022-10-22T06:05:09.805Z,112.00
2022-10-22T06:06:09.789Z,120.00
2022-10-22T06:07:09.797Z,116.00
2022-10-22T06:08:09.779Z,116.00
2022-10-22T06:09:09.794Z,156.00
2022-10-22T06:10:09.738Z,196.00
2022-10-22T06:11:09.771Z,212.00
2022-10-22T06:12:09.731Z,224.00
2022-10-22T06:13:09.726Z,248.00
2022-10-22T06:14:09.718Z,268.00
2022-10-22T06:15:09.759Z,288.00
2022-10-22T06:16:09.691Z,312.00
2022-10-22T06:17:09.674Z,336.00
2022-10-22T06:18:09.686Z,360.00
2022-10-22T06:19:09.681Z,388.00
2022-10-22T06:20:09.655Z,412.00
2022-10-22T06:21:09.662Z,436.00
2022-10-22T06:22:09.654Z,464.00
2022-10-22T06:23:09.624Z,484.00
2022-10-22T06:24:09.611Z,508.00
2022-10-22T06:25:09.598Z,536.00
2022-10-22T06:26:09.607Z,560.00
2022-10-22T06:27:09.580Z,584.00
2022-10-22T06:28:09.572Z,616.00
2022-10-22T06:29:09.571Z,648.00
2022-10-22T06:30:09.557Z,684.00
2022-10-22T06:31:09.578Z,720.00
2022-10-22T06:32:09.542Z,764.00
2022-10-22T06:33:09.519Z,804.00
2022-10-22T06:34:09.509Z,840.00
2022-10-22T06:35:09.504Z,888.00
2022-10-22T06:36:09.526Z,940.00
2022-10-22T06:37:09.495Z,1000.00
2022-10-22T06:38:09.474Z,1068.00
2022-10-22T06:39:09.499Z,1136.00
2022-10-22T06:40:09.468Z,1208.00
2022-10-22T06:41:09.446Z,1288.00
2022-10-22T06:42:09.439Z,1380.00
2022-10-22T06:43:09.426Z,1540.00
2022-10-22T06:44:09.439Z,2048.00
2022-10-22T06:45:09.429Z,1992.00
2022-10-22T06:46:09.393Z,1944.00
2022-10-22T06:47:09.386Z,1964.00
2022-10-22T06:48:09.381Z,2204.00
2022-10-22T06:49:09.390Z,2036.00
2022-10-22T06:50:09.389Z,1928.00
2022-10-22T06:51:09.358Z,1796.00
2022-10-22T06:52:09.339Z,1788.00
2022-10-22T06:53:09.360Z,1812.00
2022-10-22T06:54:09.334Z,1980.00
2022-10-22T06:55:09.302Z,2340.00
2022-10-22T06:56:09.307Z,2216.00
2022-10-22T06:57:09.314Z,2960.00
2022-10-22T06:58:09.277Z,3456.00
2022-10-22T06:59:09.272Z,3684.00
2022-10-22T07:00:09.256Z,3536.00
2022-10-22T07:01:09.353Z,3508.00
2022-10-22T07:02:09.236Z,3764.00
2022-10-22T07:03:09.233Z,4144.00
2022-10-22T07:04:09.229Z,4124.00
2022-10-22T07:05:09.219Z,4632.00
2022-10-22T07:06:09.221Z,5032.00
2022-10-22T07:07:09.186Z,5576.00
2022-10-22T07:08:09.199Z,7004.00
2022-10-22T07:09:09.280Z,16704.00
2022-10-22T07:10:09.219Z,7800.00
2022-10-22T07:11:09.142Z,8624.00
2022-10-22T07:12:09.132Z,8932.00
2022-10-22T07:13:09.159Z,8872.00
2022-10-22T07:14:09.120Z,11464.00
2022-10-22T07:15:09.104Z,10664.00
2022-10-22T07:16:09.114Z,10460.00
2022-10-22T07:17:09.111Z,18400.00
2022-10-22T07:18:09.073Z,19328.00
2022-10-22T07:19:09.064Z,20256.00
2022-10-22T07:20:09.056Z,20416.00
2022-10-22T07:21:09.042Z,20000.00
2022-10-22T07:22:09.069Z,19200.00
2022-10-22T07:23:09.023Z,20352.00
2022-10-22T07:24:09.062Z,21216.00
2022-10-22T07:25:09.009Z,27328.00
2022-10-22T07:26:09.015Z,39776.00
2022-10-22T07:27:10.974Z,46560.00
2022-10-22T07:28:08.994Z,43872.00
2022-10-22T07:29:08.966Z,39584.00
2022-10-22T07:30:08.954Z,31136.00
2022-10-22T07:31:08.954Z,29408.00
2022-10-22T07:32:08.951Z,30752.00
2022-10-22T07:33:08.936Z,28544.00
2022-10-22T07:34:08.974Z,25600.00
2022-10-22T07:35:08.910Z,25344.00
2022-10-22T07:36:08.897Z,26784.00
2022-10-22T07:37:08.904Z,27168.00
2022-10-22T07:38:08.881Z,26368.00
2022-10-22T07:39:08.861Z,25984.00
2022-10-22T07:40:08.868Z,16800.00
2022-10-22T07:41:08.874Z,17440.00
2022-10-22T07:42:08.839Z,13112.00
2022-10-22T07:43:08.836Z,9968.00
2022-10-22T07:44:08.823Z,7388.00
2022-10-22T07:45:08.827Z,6516.00
2022-10-22T07:46:08.836Z,5668.00
2022-10-22T07:47:08.800Z,4664.00
2022-10-22T07:48:08.780Z,3868.00
2022-10-22T07:49:08.766Z,3372.00
2022-10-22T07:50:08.777Z,3132.00
2022-10-22T07:51:08.790Z,2916.00
2022-10-22T07:52:08.763Z,2776.00
2022-10-22T07:53:08.741Z,2740.00
2022-10-22T07:54:08.760Z,2864.00
2022-10-22T07:55:08.729Z,3076.00
2022-10-22T07:56:08.701Z,3180.00
2022-10-22T07:57:08.717Z,3264.00
2022-10-22T07:58:08.692Z,3520.00
2022-10-22T07:59:08.664Z,3576.00
2022-10-22T08:00:08.656Z,3616.00
2022-10-22T08:01:08.716Z,3764.00
2022-10-22T08:02:08.670Z,3700.00
2022-10-22T08:03:08.636Z,3844.00
2022-10-22T08:04:08.638Z,4452.00
2022-10-22T08:05:08.613Z,4768.00
2022-10-22T08:06:08.601Z,5384.00
2022-10-22T08:07:08.583Z,5564.00
2022-10-22T08:08:08.577Z,6052.00
2022-10-22T08:09:08.641Z,4988.00
2022-10-22T08:10:08.577Z,4088.00
2022-10-22T08:11:08.641Z,3276.00
2022-10-22T08:12:08.542Z,2696.00
2022-10-22T08:13:08.558Z,2432.00
2022-10-22T08:14:08.542Z,2292.00
2022-10-22T08:15:08.525Z,2256.00
2022-10-22T08:16:08.529Z,2192.00
2022-10-22T08:17:08.488Z,2204.00
2022-10-22T08:18:08.487Z,2148.00
2022-10-22T08:19:08.506Z,2076.00
2022-10-22T08:20:08.461Z,1996.00
2022-10-22T08:21:08.545Z,2004.00
2022-10-22T08:22:08.462Z,2140.00
2022-10-22T08:23:08.448Z,2264.00
2022-10-22T08:24:08.443Z,2196.00
2022-10-22T08:25:08.446Z,2040.00
2022-10-22T08:26:08.417Z,1996.00
2022-10-22T08:27:08.406Z,1896.00
2022-10-22T08:28:08.383Z,1792.00
2022-10-22T08:29:08.391Z,1864.00
2022-10-22T08:30:08.406Z,1920.00
2022-10-22T08:31:08.443Z,2200.00
2022-10-22T08:32:08.362Z,2440.00
2022-10-22T08:33:08.334Z,2532.00
2022-10-22T08:34:08.349Z,2656.00
2022-10-22T08:35:08.353Z,2752.00
2022-10-22T08:36:08.315Z,2800.00
2022-10-22T08:37:08.290Z,2948.00
2022-10-22T08:38:08.288Z,3052.00
2022-10-22T08:39:08.266Z,3088.00
2022-10-22T08:40:08.277Z,3112.00
2022-10-22T08:41:08.265Z,3072.00
2022-10-22T08:42:08.236Z,3008.00
2022-10-22T08:43:08.233Z,3100.00
2022-10-22T08:44:08.234Z,3232.00
2022-10-22T08:45:08.237Z,3280.00
2022-10-22T08:46:08.208Z,3404.00
2022-10-22T08:47:08.193Z,3584.00
2022-10-22T08:48:08.178Z,3872.00
2022-10-22T08:50:08.195Z,4436.00
2022-10-22T08:51:40.055Z,4296.00
2022-10-22T08:52:08.144Z,4216.00
2022-10-22T08:53:08.129Z,4072.00
2022-10-22T08:54:08.131Z,3920.00
2022-10-22T08:55:08.108Z,3748.00
2022-10-22T08:56:08.127Z,3608.00
2022-10-22T08:57:08.089Z,3412.00
2022-10-22T08:58:08.096Z,3376.00
2022-10-22T08:59:08.069Z,3012.00
2022-10-22T09:00:08.061Z,2976.00
2022-10-22T09:01:08.047Z,3228.00
2022-10-22T09:02:08.040Z,3424.00
2022-10-22T09:03:08.064Z,3408.00
2022-10-22T09:04:08.017Z,3216.00
2022-10-22T09:05:11.510Z,3112.00
2022-10-22T09:06:09.007Z,2940.00
2022-10-22T09:07:08.008Z,2784.00
2022-10-22T09:08:07.991Z,2656.00
2022-10-22T09:09:08.038Z,2688.00
2022-10-22T09:10:08.962Z,2708.00
2022-10-22T09:11:07.951Z,2816.00
2022-10-22T09:12:07.952Z,2992.00
2022-10-22T09:13:07.936Z,3088.00
2022-10-22T09:14:07.966Z,3176.00
2022-10-22T09:15:07.916Z,3312.00
2022-10-22T09:16:07.900Z,3316.00
2022-10-22T09:17:07.893Z,3352.00
2022-10-22T09:18:07.888Z,3384.00
2022-10-22T09:19:07.900Z,3440.00
2022-10-22T09:20:07.867Z,3192.00
2022-10-22T09:21:07.852Z,3316.00
2022-10-22T09:22:07.830Z,3684.00
2022-10-22T09:23:07.836Z,3908.00
2022-10-22T09:24:07.848Z,3908.00
2022-10-22T09:25:07.834Z,3932.00
2022-10-22T09:26:07.799Z,4128.00
2022-10-22T09:27:07.792Z,4168.00
2022-10-22T09:28:07.789Z,4388.00
2022-10-22T09:29:07.776Z,4472.00
2022-10-22T09:30:07.807Z,4672.00
2022-10-22T09:31:07.784Z,4812.00
2022-10-22T09:32:07.749Z,4812.00
2022-10-22T09:33:07.745Z,4612.00
2022-10-22T09:34:07.737Z,4592.00
2022-10-22T09:35:07.718Z,4480.00
2022-10-22T09:36:07.762Z,4244.00
2022-10-22T09:37:07.684Z,4108.00
2022-10-22T09:38:07.674Z,4224.00
2022-10-22T09:39:07.726Z,4736.00
2022-10-22T09:40:07.673Z,4976.00
2022-10-22T09:41:07.645Z,4960.00
2022-10-22T09:42:07.659Z,4832.00
2022-10-22T09:43:07.628Z,4960.00
2022-10-22T09:44:07.617Z,4876.00
2022-10-22T09:45:07.617Z,4976.00
2022-10-22T09:46:07.607Z,5044.00
2022-10-22T09:47:07.625Z,4848.00
2022-10-22T09:48:07.577Z,4584.00
2022-10-22T09:49:07.577Z,4580.00
2022-10-22T09:50:07.558Z,4752.00
2022-10-22T09:51:07.547Z,5044.00
2022-10-22T09:52:07.541Z,5484.00
2022-10-22T09:53:07.563Z,5748.00
2022-10-22T09:54:07.547Z,6460.00
2022-10-22T09:55:07.513Z,7364.00
2022-10-22T09:56:07.493Z,8780.00
2022-10-22T09:57:07.492Z,8664.00
2022-10-22T09:58:07.487Z,8492.00
2022-10-22T09:59:07.492Z,8568.00
2022-10-22T10:00:07.460Z,8632.00
2022-10-22T10:01:07.457Z,10472.00
2022-10-22T10:02:19.777Z,8440.00
2022-10-22T10:03:09.471Z,8376.00
2022-10-22T10:04:09.832Z,9132.00
2022-10-22T10:05:08.418Z,9280.00
2022-10-22T10:06:07.404Z,9932.00
2022-10-22T10:07:07.390Z,8552.00
2022-10-22T10:08:07.390Z,9100.00
2022-10-22T10:09:07.457Z,8872.00
2022-10-22T10:10:07.360Z,8724.00
2022-10-22T10:11:07.370Z,8740.00
2022-10-22T10:12:07.354Z,11312.00
2022-10-22T10:13:07.334Z,9432.00
2022-10-22T10:14:07.318Z,8944.00
2022-10-22T10:15:07.307Z,10916.00
2022-10-22T10:16:07.325Z,10180.00
2022-10-22T10:17:07.290Z,8208.00
2022-10-22T10:18:07.281Z,8360.00
2022-10-22T10:19:07.282Z,8420.00
2022-10-22T10:20:07.258Z,7752.00
2022-10-22T10:21:07.306Z,7496.00
2022-10-22T10:22:07.230Z,7276.00
2022-10-22T10:23:07.236Z,7128.00
2022-10-22T10:24:07.223Z,6800.00
2022-10-22T10:25:07.213Z,6508.00
2022-10-22T10:26:07.231Z,6120.00
2022-10-22T10:27:07.200Z,5844.00
2022-10-22T10:28:07.191Z,6268.00
2022-10-22T10:29:07.183Z,7224.00
2022-10-22T10:30:07.193Z,7468.00
2022-10-22T10:31:07.161Z,8284.00
2022-10-22T10:32:07.143Z,8248.00
2022-10-22T10:33:07.156Z,8892.00
2022-10-22T10:34:07.125Z,8764.00
2022-10-22T10:35:07.124Z,8480.00
2022-10-22T10:36:07.110Z,8208.00
2022-10-22T10:37:07.094Z,7712.00
2022-10-22T10:38:07.108Z,7544.00
2022-10-22T10:39:07.080Z,7340.00
2022-10-22T10:40:07.089Z,7652.00
2022-10-22T10:41:07.066Z,8672.00
2022-10-22T10:42:07.107Z,8696.00
2022-10-22T10:43:07.038Z,9864.00
2022-10-22T10:44:07.040Z,8836.00
2022-10-22T10:45:07.060Z,8652.00
2022-10-22T10:46:07.079Z,9544.00
2022-10-22T10:47:07.029Z,9764.00
2022-10-22T10:48:06.999Z,9640.00
2022-10-22T10:49:06.984Z,9668.00
2022-10-22T10:50:06.983Z,9280.00
2022-10-22T10:51:06.961Z,8448.00
2022-10-22T10:52:06.978Z,8088.00
2022-10-22T10:53:06.961Z,9096.00
2022-10-22T10:54:06.943Z,7920.00
2022-10-22T10:55:07.860Z,7676.00
2022-10-22T10:56:06.920Z,7456.00
2022-10-22T10:57:06.943Z,7512.00
2022-10-22T10:58:06.917Z,7556.00
2022-10-22T10:59:06.882Z,7604.00
2022-10-22T11:00:06.886Z,7844.00
2022-10-22T11:01:06.863Z,8204.00
2022-10-22T11:02:06.867Z,8348.00
2022-10-22T11:03:06.879Z,9160.00
2022-10-22T11:04:06.857Z,9424.00
2022-10-22T11:05:06.823Z,9904.00
2022-10-22T11:06:06.820Z,9324.00
2022-10-22T11:07:11.460Z,8168.00
2022-10-22T11:08:07.824Z,7472.00
2022-10-22T11:09:06.844Z,7492.00
2022-10-22T11:10:06.766Z,7628.00
2022-10-22T11:11:07.895Z,7768.00
2022-10-22T11:12:06.759Z,7956.00
2022-10-22T11:13:06.746Z,8440.00
2022-10-22T11:14:06.766Z,8060.00
2022-10-22T11:15:06.737Z,7616.00
2022-10-22T11:16:06.716Z,7780.00
2022-10-22T11:17:06.713Z,7720.00
2022-10-22T11:18:06.707Z,7720.00
2022-10-22T11:19:06.707Z,7464.00
2022-10-22T11:20:06.687Z,7668.00
2022-10-22T11:21:06.674Z,8108.00
2022-10-22T11:22:06.699Z,8624.00
2022-10-22T11:23:19.391Z,7740.00
2022-10-22T11:24:07.654Z,7892.00
2022-10-22T11:25:06.645Z,7908.00
2022-10-22T11:26:06.632Z,7824.00
2022-10-22T11:27:06.623Z,7756.00
2022-10-22T11:28:11.138Z,8560.00
2022-10-22T11:29:07.596Z,10736.00
2022-10-22T11:30:06.583Z,10876.00
2022-10-22T11:31:06.574Z,11352.00
2022-10-22T11:32:06.615Z,11708.00
2022-10-22T11:33:06.562Z,12212.00
2022-10-22T11:34:28.446Z,12688.00
2022-10-22T11:35:07.565Z,12456.00
2022-10-22T11:36:06.514Z,11908.00
2022-10-22T11:37:06.512Z,11720.00
2022-10-22T11:38:06.527Z,11980.00
2022-10-22T11:39:06.560Z,12120.00
2022-10-22T11:40:06.487Z,11636.00
2022-10-22T11:41:06.496Z,11908.00
2022-10-22T11:42:06.470Z,11884.00
2022-10-22T11:43:06.475Z,11712.00
2022-10-22T11:44:06.471Z,11808.00
2022-10-22T11:45:06.442Z,9080.00
2022-10-22T11:46:06.430Z,11252.00
2022-10-22T11:47:06.423Z,9176.00
2022-10-22T11:48:06.422Z,9244.00
2022-10-22T11:49:06.401Z,8256.00
2022-10-22T11:50:06.392Z,7708.00
2022-10-22T11:51:06.403Z,7424.00
2022-10-22T11:52:06.366Z,7508.00
2022-10-22T11:53:06.385Z,7580.00
2022-10-22T11:54:07.067Z,8416.00
2022-10-22T11:55:06.338Z,9504.00
2022-10-22T11:56:06.352Z,9840.00
2022-10-22T11:57:06.340Z,7368.00
2022-10-22T11:58:06.303Z,6732.00
2022-10-22T11:59:06.289Z,6560.00
2022-10-22T12:00:06.315Z,6684.00
2022-10-22T12:01:06.276Z,9728.00
2022-10-22T12:02:06.293Z,8280.00
2022-10-22T12:03:06.260Z,6768.00
2022-10-22T12:04:06.284Z,6360.00
2022-10-22T12:05:06.252Z,6140.00
2022-10-22T12:06:06.252Z,6036.00
2022-10-22T12:07:06.227Z,5812.00
2022-10-22T12:08:06.206Z,5576.00
2022-10-22T12:09:06.278Z,5492.00
2022-10-22T12:10:06.190Z,5428.00
2022-10-22T12:11:06.209Z,5412.00
2022-10-22T12:12:06.172Z,5476.00
2022-10-22T12:13:06.163Z,5264.00
2022-10-22T12:14:06.180Z,5208.00
2022-10-22T12:15:06.143Z,5376.00
2022-10-22T12:16:06.137Z,5384.00
2022-10-22T12:17:06.164Z,5696.00
2022-10-22T12:18:06.152Z,6360.00
2022-10-22T12:19:06.117Z,6764.00
2022-10-22T12:20:06.108Z,7188.00
2022-10-22T12:21:06.097Z,7376.00
2022-10-22T12:22:06.109Z,8164.00
2022-10-22T12:23:06.066Z,8672.00
2022-10-22T12:24:06.052Z,9304.00
2022-10-22T12:25:06.046Z,10996.00
2022-10-22T12:26:06.027Z,8368.00
2022-10-22T12:27:06.046Z,7648.00
2022-10-22T12:28:06.021Z,8188.00
2022-10-22T12:29:06.017Z,8624.00
2022-10-22T12:30:06.003Z,8592.00
2022-10-22T12:31:05.995Z,5736.00
2022-10-22T12:32:05.976Z,8040.00
2022-10-22T12:33:05.997Z,8524.00
2022-10-22T12:34:06.245Z,6256.00
2022-10-22T12:35:05.963Z,7020.00
2022-10-22T12:36:05.948Z,8012.00
2022-10-22T12:37:05.940Z,5452.00
2022-10-22T12:38:05.941Z,5544.00